Time;durP1;ratioP1;P1;durP2;ratioP2;P2;SDS_P1;SDS_P2;PMS_P1;PMS_P2;Temp;Humidity;BMP_temperature;BMP_pressure;BME280_temperature;BME280_humidity;BME280_pressure;Samples;Min_cycle;Max_cycle;Signal;HPM_P1;HPM_P2
2020/12/24 00:00:58;;;;;;;31.40;11.50;;;;;;;1.90;82.32;100471.57;1769668;81;21195;-62
2020/12/24 00:03:26;;;;;;;27.70;11.03;;;;;;;1.90;82.35;100473.42;1769580;80;21394;-61
2020/12/24 00:05:53;;;;;;;27.65;10.28;;;;;;;1.91;82.38;100473.78;1774671;80;21910;-61
2020/12/24 00:08:21;;;;;;;26.97;10.93;;;;;;;1.91;82.29;100475.98;1783406;80;21428;-61
2020/12/24 00:10:49;;;;;;;27.87;10.93;;;;;;;1.92;82.31;100474.13;1783269;80;21365;-61
2020/12/24 00:13:17;;;;;;;32.55;11.33;;;;;;;1.92;82.25;100472.78;1783135;80;21142;-61
2020/12/24 00:15:44;;;;;;;29.72;11.60;;;;;;;1.90;82.25;100476.12;1783424;80;21913;-61
2020/12/24 00:18:13;;;;;;;29.98;12.88;;;;;;;1.89;82.23;100470.36;1782905;80;21134;-61
2020/12/24 00:20:41;;;;;;;29.98;10.13;;;;;;;1.88;82.31;100472.20;1783476;80;21369;-62
2020/12/24 00:23:08;;;;;;;26.52;10.95;;;;;;;1.90;82.35;100470.72;1783428;80;21410;-61
2020/12/24 00:25:36;;;;;;;28.85;11.60;;;;;;;1.91;82.32;100465.67;1783358;79;21194;-62
2020/12/24 00:28:05;;;;;;;28.57;12.05;;;;;;;1.90;82.30;100463.47;1783291;80;21404;-61
2020/12/24 00:30:33;;;;;;;28.30;11.63;;;;;;;1.90;82.37;100458.56;1783383;80;21146;-61
2020/12/24 00:33:00;;;;;;;25.50;11.78;;;;;;;1.89;82.37;100455.00;1783275;80;21317;-62
2020/12/24 00:35:28;;;;;;;30.25;11.33;;;;;;;1.90;82.42;100457.20;1783393;80;21401;-61
2020/12/24 00:37:55;;;;;;;26.20;11.33;;;;;;;1.92;82.46;100457.92;1783377;79;21388;-61
2020/12/24 00:40:23;;;;;;;29.37;11.18;;;;;;;1.94;82.41;100449.17;1783305;80;21312;-62
2020/12/24 00:42:50;;;;;;;31.27;12.13;;;;;;;1.96;82.41;100450.42;1783460;80;21143;-63
2020/12/24 00:45:17;;;;;;;28.70;12.10;;;;;;;1.97;82.45;100454.33;1783451;80;21518;-62
2020/12/24 00:47:45;;;;;;;32.15;13.32;;;;;;;1.98;82.45;100456.53;1783374;80;21305;-61
2020/12/24 00:50:13;;;;;;;26.00;11.63;;;;;;;1.98;82.43;100464.64;1783710;80;21409;-62
2020/12/24 00:52:40;;;;;;;28.50;11.40;;;;;;;1.99;82.38;100471.26;1783413;80;21436;-62
2020/12/24 00:55:08;;;;;;;27.90;11.78;;;;;;;1.98;82.33;100472.75;1782786;79;21192;-61
2020/12/24 00:57:36;;;;;;;32.33;12.73;;;;;;;1.97;82.27;100470.55;1762699;81;21156;-63
2020/12/24 01:00:06;;;;;;;30.10;12.68;;;;;;;1.95;82.30;100470.30;1762765;81;21379;-62
2020/12/24 01:02:35;;;;;;;29.72;12.53;;;;;;;1.94;82.35;100468.59;1775678;80;21873;-61
2020/12/24 01:05:05;;;;;;;30.45;12.07;;;;;;;1.92;82.35;100457.92;1712124;83;21277;-62
2020/12/24 01:07:33;;;;;;;35.70;12.63;;;;;;;1.93;82.34;100462.83;1766805;80;21151;-61
2020/12/24 01:10:07;;;;;;;31.50;11.93;;;;;;;1.93;82.39;100469.58;1765744;81;21370;-61
2020/12/24 01:12:36;;;;;;;32.73;12.93;;;;;;;1.98;82.49;100475.45;1765835;81;21147;-61
2020/12/24 01:15:07;;;;;;;33.85;13.40;;;;;;;2.00;82.52;100469.41;1765825;81;21403;-63
2020/12/24 01:17:35;;;;;;;34.78;13.15;;;;;;;1.99;82.47;100467.70;1690199;85;21179;-61
2020/12/24 01:20:05;;;;;;;32.00;11.25;;;;;;;1.97;82.46;100467.84;1765715;80;21906;-61
2020/12/24 01:22:33;;;;;;;33.08;11.85;;;;;;;1.96;82.44;100470.69;1690292;85;21432;-62
2020/12/24 01:25:02;;;;;;;32.53;12.63;;;;;;;1.96;82.46;100475.59;1690150;85;21206;-62
2020/12/24 01:27:29;;;;;;;31.07;12.37;;;;;;;1.95;82.45;100473.88;1766043;81;21370;-62
2020/12/24 01:29:56;;;;;;;33.88;12.63;;;;;;;1.96;82.54;100473.39;1765880;81;21740;-61
2020/12/24 01:32:24;;;;;;;32.40;11.43;;;;;;;1.97;82.57;100471.04;1690269;83;21416;-60
2020/12/24 01:34:52;;;;;;;31.33;11.88;;;;;;;1.96;82.53;100475.59;1765894;81;21193;-62
2020/12/24 01:37:19;;;;;;;32.30;12.43;;;;;;;1.93;82.48;100481.24;1765979;81;21899;-62
2020/12/24 01:39:47;;;;;;;29.72;11.88;;;;;;;1.93;82.56;100468.23;1690256;83;21218;-63
2020/12/24 01:42:16;;;;;;;33.78;11.95;;;;;;;1.96;82.66;100466.63;1765890;81;21508;-60
2020/12/24 01:44:49;;;;;;;31.82;12.10;;;;;;;1.96;82.69;100470.19;1690334;85;21382;-61
2020/12/24 01:47:16;;;;;;;29.92;10.75;;;;;;;1.97;82.69;100473.25;1765886;81;21377;-61
2020/12/24 01:49:44;;;;;;;34.18;11.43;;;;;;;1.96;82.67;100460.73;1765810;81;21243;-62
2020/12/24 01:52:36;;;;;;;28.20;10.88;;;;;;;1.98;82.65;100464.14;1690313;85;21372;-60
2020/12/24 01:55:08;;;;;;;30.40;12.25;;;;;;;2.02;82.72;100463.36;1765871;81;21875;-61
2020/12/24 01:57:37;;;;;;;34.05;11.83;;;;;;;2.02;82.75;100462.87;1708989;83;21886;-62
2020/12/24 02:00:06;;;;;;;27.77;11.70;;;;;;;2.01;82.67;100463.86;1775187;80;21212;-62
2020/12/24 02:02:36;;;;;;;30.50;11.88;;;;;;;1.99;82.67;100459.09;1774658;79;21980;-61
2020/12/24 02:05:04;;;;;;;26.48;10.78;;;;;;;1.97;82.65;100451.63;1775155;80;21161;-61
2020/12/24 02:07:31;;;;;;;26.48;10.72;;;;;;;1.97;82.57;100452.12;1771001;80;21145;-61
2020/12/24 02:10:00;;;;;;;29.02;10.98;;;;;;;1.92;82.58;100449.81;1769642;81;21276;-63
2020/12/24 02:12:28;;;;;;;27.67;11.43;;;;;;;1.91;82.69;100454.86;1769696;80;21336;-61
2020/12/24 02:14:55;;;;;;;29.42;12.13;;;;;;;1.89;82.78;100453.66;1769722;81;21907;-61
2020/12/24 02:17:22;;;;;;;32.30;11.75;;;;;;;1.89;82.81;100453.66;1769678;80;21442;-63
2020/12/24 02:19:50;;;;;;;28.60;11.38;;;;;;;1.90;82.87;100455.86;1769733;80;22021;-62
2020/12/24 02:22:18;;;;;;;27.42;11.43;;;;;;;1.93;82.89;100452.88;1769735;81;21392;-61
2020/12/24 02:24:46;;;;;;;29.70;11.25;;;;;;;1.92;82.86;100457.92;1769767;80;21185;-61
2020/12/24 02:27:14;;;;;;;30.57;11.35;;;;;;;1.92;82.92;100455.22;1769698;81;21177;-61
2020/12/24 02:29:41;;;;;;;27.52;11.93;;;;;;;1.91;82.94;100450.31;1769723;80;21340;-61
2020/12/24 02:32:08;;;;;;;32.88;11.83;;;;;;;1.93;83.02;100444.77;1769639;81;21443;-62
2020/12/24 02:34:36;;;;;;;30.02;10.45;;;;;;;1.96;83.08;100436.91;1769827;81;21141;-61
2020/12/24 02:37:06;;;;;;;32.38;11.15;;;;;;;1.98;83.00;100443.02;1769713;81;21318;-62
2020/12/24 02:39:33;;;;;;;29.55;11.40;;;;;;;2.00;83.00;100446.44;1769725;81;21328;-60
2020/12/24 02:42:00;;;;;;;34.35;12.10;;;;;;;2.02;83.10;100454.77;1769768;81;21877;-62
2020/12/24 02:44:28;;;;;;;31.05;12.10;;;;;;;2.03;83.09;100447.01;1769756;81;21348;-61
2020/12/24 02:46:55;;;;;;;33.00;11.93;;;;;;;2.04;83.07;100447.37;1769830;81;21399;-61
2020/12/24 02:49:23;;;;;;;28.52;11.18;;;;;;;2.04;82.98;100454.63;1769797;80;21391;-61
2020/12/24 02:51:51;;;;;;;30.37;11.97;;;;;;;2.05;82.97;100456.33;1769794;80;21846;-61
2020/12/24 02:54:18;;;;;;;31.70;12.15;;;;;;;2.05;82.95;100454.48;1769727;80;21262;-62
2020/12/24 02:56:46;;;;;;;34.30;12.03;;;;;;;2.03;82.93;100455.11;1769879;80;21459;-61
2020/12/24 02:59:14;;;;;;;27.60;11.20;;;;;;;2.01;82.91;100454.41;1769872;81;21905;-61
2020/12/24 03:01:41;;;;;;;29.42;11.10;;;;;;;1.98;82.91;100453.34;1769652;81;21507;-62
2020/12/24 03:04:10;;;;;;;27.13;10.48;;;;;;;1.98;82.94;100456.53;1769677;79;21146;-63
2020/12/24 03:06:37;;;;;;;32.75;12.33;;;;;;;1.98;82.94;100455.19;1769679;81;21389;-60
2020/12/24 03:09:05;;;;;;;31.50;12.28;;;;;;;1.97;82.98;100457.03;1769612;81;21889;-62
2020/12/24 03:11:34;;;;;;;32.08;12.90;;;;;;;1.98;83.04;100463.29;1778906;79;21151;-62
2020/12/24 03:14:02;;;;;;;35.55;11.70;;;;;;;1.99;83.12;100461.80;1768743;80;21492;-61
2020/12/24 03:16:31;;;;;;;32.85;12.47;;;;;;;2.00;83.13;100448.64;1796106;80;21147;-61
2020/12/24 03:18:58;;;;;;;32.75;12.37;;;;;;;2.03;83.11;100450.20;1796227;79;21390;-61
2020/12/24 03:21:25;;;;;;;33.05;13.30;;;;;;;2.01;83.00;100434.64;1725553;82;21217;-61
2020/12/24 03:23:53;;;;;;;35.43;14.47;;;;;;;1.99;83.06;100446.94;1725479;83;21449;-60
2020/12/24 03:26:20;;;;;;;34.03;12.43;;;;;;;1.99;83.15;100441.53;1725532;83;21437;-60
2020/12/24 03:28:48;;;;;;;31.45;11.45;;;;;;;1.98;83.13;100442.53;1796338;79;21405;-60
2020/12/24 03:31:20;;;;;;;32.00;11.65;;;;;;;1.97;83.07;100435.91;1725858;83;21159;-61
2020/12/24 03:33:49;;;;;;;36.80;12.60;;;;;;;1.95;83.02;100429.77;1725894;83;21822;-60
2020/12/24 03:36:16;;;;;;;39.95;14.95;;;;;;;1.94;83.08;100434.31;1796248;80;21147;-60
2020/12/24 03:38:44;;;;;;;36.45;13.95;;;;;;;1.95;83.13;100437.88;1796346;80;21312;-61
2020/12/24 03:41:12;;;;;;;37.58;13.72;;;;;;;1.95;83.28;100431.12;1715570;82;21456;-60
2020/12/24 03:43:39;;;;;;;37.33;13.78;;;;;;;1.99;83.35;100428.02;1769843;81;21404;-61
2020/12/24 03:46:07;;;;;;;39.85;13.85;;;;;;;2.01;83.35;100431.44;1769536;80;21162;-61
2020/12/24 03:48:35;;;;;;;40.35;15.00;;;;;;;2.02;83.29;100428.23;1769735;81;21388;-62
2020/12/24 03:51:02;;;;;;;38.63;14.20;;;;;;;2.03;83.35;100419.98;1769939;81;21158;-60
2020/12/24 03:53:30;;;;;;;37.28;14.00;;;;;;;2.04;83.39;100412.73;1769600;80;22015;-60
2020/12/24 03:55:58;;;;;;;38.67;13.85;;;;;;;2.02;83.35;100414.23;1769645;81;21114;-59
2020/12/24 03:58:25;;;;;;;34.60;12.60;;;;;;;2.02;83.30;100412.88;1769841;80;21853;-61
2020/12/24 04:00:53;;;;;;;36.03;13.58;;;;;;;2.02;83.24;100404.77;1770031;80;21893;-60
2020/12/24 04:03:20;;;;;;;41.40;14.40;;;;;;;2.02;83.23;100410.67;1711614;83;21575;-60
2020/12/24 04:05:47;;;;;;;40.67;14.98;;;;;;;2.01;83.30;100404.41;1711398;83;21170;-61
2020/12/24 04:08:15;;;;;;;35.48;14.10;;;;;;;2.00;83.26;100401.36;1775357;80;21721;-61
2020/12/24 04:10:42;;;;;;;39.20;12.70;;;;;;;1.99;83.22;100404.20;1775435;80;21488;-62
2020/12/24 04:13:10;;;;;;;35.15;12.82;;;;;;;1.97;83.24;100404.34;1711557;83;21521;-61
2020/12/24 04:15:40;;;;;;;32.88;12.25;;;;;;;1.98;83.23;100400.64;1711361;83;21182;-60
2020/12/24 04:18:08;;;;;;;31.30;12.50;;;;;;;2.01;83.25;100403.06;1711596;83;21434;-61
2020/12/24 04:20:37;;;;;;;28.75;11.80;;;;;;;2.03;83.30;100393.46;1708089;83;21360;-63
2020/12/24 04:23:04;;;;;;;28.17;11.53;;;;;;;2.04;83.26;100396.52;1711351;83;21390;-61
2020/12/24 04:25:32;;;;;;;29.72;10.78;;;;;;;2.01;83.17;100393.61;1775432;80;21222;-62
2020/12/24 04:28:00;;;;;;;28.77;10.50;;;;;;;2.00;83.14;100397.30;1711458;83;21135;-61
2020/12/24 04:30:27;;;;;;;29.82;10.55;;;;;;;2.01;83.06;100386.85;1775439;80;21389;-61
2020/12/24 04:32:55;;;;;;;23.70;9.88;;;;;;;2.02;83.09;100384.50;1711517;83;21423;-62
2020/12/24 04:35:22;;;;;;;22.52;9.45;;;;;;;2.03;83.14;100388.91;1775493;80;21460;-61
2020/12/24 04:37:50;;;;;;;30.30;11.60;;;;;;;2.00;83.04;100383.80;1711450;83;21162;-62
2020/12/24 04:40:17;;;;;;;28.57;10.53;;;;;;;1.98;83.02;100389.84;1775461;80;21262;-61
2020/12/24 04:42:45;;;;;;;27.35;10.43;;;;;;;1.98;83.03;100395.25;1711480;83;21217;-62
2020/12/24 04:45:12;;;;;;;26.00;10.00;;;;;;;2.00;82.98;100393.25;1775397;80;21309;-61
2020/12/24 04:47:43;;;;;;;23.12;9.68;;;;;;;1.99;82.89;100388.84;1711513;83;21193;-61
2020/12/24 04:50:13;;;;;;;21.05;9.30;;;;;;;1.96;82.88;100386.42;1775305;80;22004;-61
2020/12/24 04:52:40;;;;;;;22.75;9.30;;;;;;;1.93;82.85;100387.17;1775336;80;21457;-62
2020/12/24 04:55:07;;;;;;;25.75;10.40;;;;;;;1.90;82.84;100391.02;1775382;80;21422;-61
2020/12/24 04:57:34;;;;;;;26.25;10.68;;;;;;;1.89;82.94;100386.11;1769763;80;21152;-62
2020/12/24 05:00:02;;;;;;;26.97;10.43;;;;;;;1.91;82.95;100384.12;1769623;81;21423;-59
2020/12/24 05:02:30;;;;;;;28.27;11.50;;;;;;;1.92;83.01;100384.97;1769714;80;21860;-60
2020/12/24 05:04:57;;;;;;;26.77;11.03;;;;;;;1.90;82.97;100386.97;1769594;81;21533;-61
2020/12/24 05:07:24;;;;;;;24.65;9.53;;;;;;;1.88;82.97;100393.01;1769524;79;21127;-61
2020/12/24 05:09:52;;;;;;;29.92;10.90;;;;;;;1.89;83.02;100386.61;1769761;80;21171;-62
2020/12/24 05:12:31;;;;;;;25.23;10.53;;;;;;;1.88;82.97;100390.30;1769866;81;21167;-59
2020/12/24 05:14:58;;;;;;;24.50;10.85;;;;;;;1.86;82.98;100394.50;1769465;80;21190;-62
2020/12/24 05:17:26;;;;;;;27.25;10.65;;;;;;;1.85;83.08;100390.09;1769712;79;21440;-61
2020/12/24 05:20:02;;;;;;;25.12;10.10;;;;;;;1.86;83.13;100389.09;1769663;81;21401;-60
2020/12/24 05:22:30;;;;;;;30.37;9.60;;;;;;;1.86;83.21;100390.95;1769873;81;21424;-61
2020/12/24 05:25:10;;;;;;;25.92;9.75;;;;;;;1.87;83.24;100392.16;1769516;81;21395;-61
2020/12/24 05:27:39;;;;;;;26.50;10.43;;;;;;;1.90;83.25;100384.27;1769761;79;21159;-59
2020/12/24 05:30:07;;;;;;;27.93;10.75;;;;;;;1.89;83.27;100380.70;1769280;79;21925;-62
2020/12/24 05:32:34;;;;;;;27.80;10.53;;;;;;;1.90;83.27;100390.52;1769252;80;21192;-61
2020/12/24 05:35:13;;;;;;;28.25;10.78;;;;;;;1.88;83.35;100391.66;1769703;81;21923;-60
2020/12/24 05:37:40;;;;;;;24.27;9.78;;;;;;;1.88;83.36;100388.95;1769805;80;21389;-62
2020/12/24 05:40:27;;;;;;;24.40;9.63;;;;;;;1.87;83.32;100396.20;1769693;80;21416;-62
2020/12/24 05:42:59;;;;;;;24.67;9.73;;;;;;;1.86;83.29;100400.41;1769782;81;21373;-60
2020/12/24 05:45:28;;;;;;;23.75;10.05;;;;;;;1.82;83.32;100401.19;1768896;79;21429;-60
2020/12/24 05:48:11;;;;;;;21.82;8.75;;;;;;;1.80;83.43;100400.47;1769698;80;21202;-60
2020/12/24 05:50:39;;;;;;;23.75;8.80;;;;;;;1.81;83.48;100398.62;1769523;80;21398;-61
2020/12/24 05:53:14;;;;;;;21.37;8.63;;;;;;;1.83;83.55;100411.00;1769524;80;21155;-62
2020/12/24 05:55:43;;;;;;;23.18;8.95;;;;;;;1.82;83.55;100411.14;1769721;81;21400;-60
2020/12/24 05:58:10;;;;;;;27.20;10.72;;;;;;;1.84;83.65;100409.14;1769598;81;21443;-63
2020/12/24 06:00:40;;;;;;;28.62;10.68;;;;;;;1.82;83.71;100399.83;1769542;80;21425;-61
2020/12/24 06:03:20;;;;;;;24.45;9.50;;;;;;;1.83;83.71;100402.04;1769729;81;21174;-60
2020/12/24 06:05:56;;;;;;;24.85;8.93;;;;;;;1.84;83.73;100393.79;1769649;80;21132;-60
2020/12/24 06:08:29;;;;;;;24.67;9.88;;;;;;;1.85;83.79;100390.59;1777667;80;21476;-61
2020/12/24 06:11:09;;;;;;;24.25;9.60;;;;;;;1.87;83.93;100385.40;1783631;80;21169;-60
2020/12/24 06:13:49;;;;;;;22.45;8.10;;;;;;;1.88;83.99;100374.95;1783514;80;21398;-61
2020/12/24 06:16:17;;;;;;;29.67;10.50;;;;;;;1.91;83.98;100373.31;1783465;80;21453;-60
2020/12/24 06:18:45;;;;;;;23.80;9.65;;;;;;;1.90;83.94;100366.20;1783439;80;21189;-62
2020/12/24 06:21:19;;;;;;;25.27;9.70;;;;;;;1.90;83.96;100366.20;1783477;80;21170;-61
2020/12/24 06:23:59;;;;;;;29.55;10.88;;;;;;;1.89;84.02;100369.05;1783448;80;21574;-63
2020/12/24 06:26:34;;;;;;;26.82;9.08;;;;;;;1.88;84.09;100371.39;1783404;80;21416;-62
2020/12/24 06:29:03;;;;;;;25.80;9.60;;;;;;;1.92;84.15;100371.47;1783508;79;21347;-61
2020/12/24 06:31:30;;;;;;;27.90;11.38;;;;;;;1.94;84.17;100378.93;1783470;80;21944;-62
2020/12/24 06:33:58;;;;;;;28.07;11.38;;;;;;;1.98;84.15;100378.18;1791719;80;21865;-61
2020/12/24 06:36:35;;;;;;;30.80;10.93;;;;;;;2.00;84.20;100363.53;1788136;79;21158;-61
2020/12/24 06:39:04;;;;;;;27.65;9.35;;;;;;;2.00;84.10;100370.28;1788442;79;21111;-61
2020/12/24 06:41:39;;;;;;;27.05;9.93;;;;;;;2.00;84.08;100354.07;1788363;80;21522;-61
2020/12/24 06:44:08;;;;;;;25.60;9.45;;;;;;;2.01;84.04;100354.42;1788235;79;21107;-61
2020/12/24 06:46:57;;;;;;;23.67;9.13;;;;;;;2.02;84.08;100353.92;1788268;80;21103;-61
2020/12/24 06:49:29;;;;;;;26.70;9.25;;;;;;;2.03;84.07;100359.19;1788247;80;21106;-61
2020/12/24 06:51:57;;;;;;;22.52;9.08;;;;;;;2.01;84.03;100357.12;1788222;79;21142;-61
2020/12/24 06:54:27;;;;;;;23.00;9.05;;;;;;;2.00;83.98;100357.27;1788247;80;21146;-61
2020/12/24 06:57:23;;;;;;;29.87;12.20;;;;;;;2.02;83.94;100368.29;1788100;79;21206;-61
2020/12/24 07:00:18;;;;;;;28.92;12.05;;;;;;;2.03;83.92;100368.64;1787467;80;21182;-59
2020/12/24 07:06:49;;;;;;;56.58;20.62;;;;;;;2.04;83.94;100346.53;1843436;77;22162;-60
2020/12/24 07:09:30;;;;;;;33.35;13.60;;;;;;;2.00;83.95;100352.72;1815952;79;21451;-61
2020/12/24 07:12:00;;;;;;;27.58;11.43;;;;;;;2.02;83.95;100354.78;1815826;79;21134;-61
2020/12/24 07:14:40;;;;;;;36.13;15.15;;;;;;;2.03;83.95;100357.84;1816026;79;21135;-61
2020/12/24 07:17:12;;;;;;;32.42;12.65;;;;;;;2.03;83.97;100355.13;1749221;82;21134;-61
2020/12/24 07:19:42;;;;;;;29.55;12.88;;;;;;;2.05;84.03;100351.79;1780124;80;21372;-61
2020/12/24 07:22:13;;;;;;;39.95;17.77;;;;;;;2.10;84.08;100356.77;1749163;82;21406;-60
2020/12/24 07:24:40;;;;;;;32.70;12.90;;;;;;;2.11;83.99;100345.80;1749205;82;21284;-61
2020/12/24 07:27:08;;;;;;;41.35;19.27;;;;;;;2.11;83.96;100343.10;1719656;82;21413;-60
2020/12/24 07:29:35;;;;;;;34.15;14.55;;;;;;;2.12;83.96;100340.75;1749181;81;21468;-60
2020/12/24 07:32:06;;;;;;;33.15;12.70;;;;;;;2.12;83.98;100338.05;1749163;82;21169;-60
2020/12/24 07:34:35;;;;;;;54.80;20.82;;;;;;;2.12;83.97;100340.75;1749212;82;21430;-62
2020/12/24 07:37:04;;;;;;;47.50;18.73;;;;;;;2.13;83.97;100336.20;1748676;82;21280;-64
2020/12/24 07:39:32;;;;;;;41.08;17.73;;;;;;;2.14;83.90;100338.75;1748297;82;21449;-64
2020/12/24 07:41:59;;;;;;;62.27;26.07;;;;;;;2.15;83.82;100353.13;1747678;81;21404;-64
2020/12/24 07:44:27;;;;;;;33.28;14.47;;;;;;;2.11;83.83;100348.51;1747759;82;21186;-61
2020/12/24 07:47:01;;;;;;;37.88;14.28;;;;;;;2.10;83.94;100343.25;1748470;82;21970;-63
2020/12/24 07:49:29;;;;;;;32.13;12.93;;;;;;;2.08;83.95;100340.69;1748790;82;21452;-61
2020/12/24 07:51:57;;;;;;;34.83;12.28;;;;;;;2.09;84.00;100336.14;1749478;82;21384;-62
2020/12/24 07:54:29;;;;;;;34.83;13.18;;;;;;;2.10;84.04;100337.34;1749285;82;21866;-61
2020/12/24 07:56:56;;;;;;;31.20;11.97;;;;;;;2.14;84.10;100333.36;1727276;82;21328;-60
2020/12/24 07:59:24;;;;;;;29.90;10.85;;;;;;;2.14;83.96;100341.46;1731788;81;21867;-60
2020/12/24 08:01:51;;;;;;;23.98;10.32;;;;;;;2.09;83.88;100336.98;1750351;81;21979;-61
2020/12/24 08:04:19;;;;;;;24.82;9.80;;;;;;;2.07;83.92;100344.89;1777218;80;21431;-61
2020/12/24 08:06:50;;;;;;;23.55;9.90;;;;;;;2.03;83.94;100340.77;1726039;82;21432;-62
2020/12/24 08:09:19;;;;;;;27.20;10.58;;;;;;;2.02;84.03;100336.36;1708275;83;21259;-61
2020/12/24 08:11:55;;;;;;;25.85;9.80;;;;;;;2.02;84.04;100337.22;1726179;81;21206;-61
2020/12/24 08:14:23;;;;;;;28.52;12.63;;;;;;;2.02;84.07;100339.92;1726151;81;21435;-60
2020/12/24 08:16:51;;;;;;;39.42;17.17;;;;;;;2.01;84.18;100332.81;1725768;81;21385;-61
2020/12/24 08:19:33;;;;;;;38.67;16.65;;;;;;;2.03;84.28;100337.57;1725483;82;21867;-63
2020/12/24 08:22:09;;;;;;;32.28;13.78;;;;;;;2.08;84.40;100344.74;1725573;81;21883;-62
2020/12/24 08:24:38;;;;;;;34.73;14.15;;;;;;;2.12;84.41;100352.91;1708670;83;21869;-61
2020/12/24 08:27:06;;;;;;;44.18;17.35;;;;;;;2.13;84.31;100347.86;1725497;81;21450;-62
2020/12/24 08:29:36;;;;;;;24.10;12.15;;;;;;;2.14;84.22;100355.47;1725573;83;21437;-63
2020/12/24 08:32:04;;;;;;;26.40;12.47;;;;;;;2.12;84.21;100358.82;1729358;82;21418;-62
2020/12/24 08:34:31;;;;;;;15.72;7.47;;;;;;;2.11;84.20;100349.86;1769782;81;21891;-63
2020/12/24 08:36:59;;;;;;;18.80;8.05;;;;;;;2.11;84.13;100346.30;1800091;79;21217;-63
2020/12/24 08:39:28;;;;;;;22.62;9.83;;;;;;;2.08;84.03;100343.89;1799100;79;21864;-61
2020/12/24 08:42:00;;;;;;;23.80;9.55;;;;;;;2.09;84.02;100337.48;1769735;79;21351;-63
2020/12/24 08:44:27;;;;;;;19.27;8.33;;;;;;;2.08;84.00;100326.33;1781383;79;21363;-62
2020/12/24 08:47:04;;;;;;;19.23;8.03;;;;;;;2.07;83.96;100322.77;1788374;79;21456;-60
2020/12/24 08:49:34;;;;;;;24.77;9.38;;;;;;;2.08;83.92;100322.27;1773910;79;21879;-61
2020/12/24 08:52:17;;;;;;;18.73;7.60;;;;;;;2.06;83.83;100321.06;1748113;81;21886;-63
2020/12/24 08:55:05;;;;;;;19.15;7.70;;;;;;;2.06;83.78;100323.77;1769590;80;21928;-61
2020/12/24 08:57:36;;;;;;;14.20;6.85;;;;;;;2.04;83.71;100314.95;1770452;79;21750;-67
2020/12/24 09:00:06;;;;;;;15.25;6.42;;;;;;;2.04;83.66;100304.14;1732733;82;21350;-62
2020/12/24 09:02:36;;;;;;;14.73;6.55;;;;;;;2.00;83.60;100293.27;1775446;79;21933;-65
2020/12/24 09:05:06;;;;;;;12.45;5.90;;;;;;;2.00;83.56;100292.42;1786603;79;21183;-65
2020/12/24 09:07:36;;;;;;;68.55;28.25;;;;;;;2.00;83.50;100289.22;1768965;81;21326;-62
2020/12/24 09:10:15;;;;;;;20.20;9.13;;;;;;;1.99;83.48;100282.11;1769365;79;21246;-66
2020/12/24 09:12:43;;;;;;;15.20;7.05;;;;;;;1.98;83.46;100274.16;1769125;81;21192;-63
2020/12/24 09:15:14;;;;;;;16.70;7.33;;;;;;;1.96;83.37;100274.80;1769391;81;21205;-64
2020/12/24 09:17:52;;;;;;;18.85;8.55;;;;;;;1.92;83.29;100291.77;1769259;80;21512;-63
2020/12/24 09:20:29;;;;;;;13.93;7.42;;;;;;;1.93;83.26;100289.41;1774059;79;21836;-66
2020/12/24 09:23:01;;;;;;;18.17;9.08;;;;;;;1.94;83.30;100292.47;1781995;79;21436;-68
2020/12/24 09:25:35;;;;;;;11.05;5.55;;;;;;;1.97;83.31;100297.62;1786147;79;21166;-64
2020/12/24 09:28:22;;;;;;;12.50;6.47;;;;;;;1.97;83.27;100294.92;1800644;79;21183;-69
2020/12/24 09:30:51;;;;;;;9.83;4.65;;;;;;;1.97;83.14;100284.11;1734537;82;21146;-69
2020/12/24 09:33:19;;;;;;;12.63;5.80;;;;;;;1.97;83.07;100271.09;1799190;79;21898;-64
2020/12/24 09:35:46;;;;;;;21.75;11.75;;;;;;;1.99;83.09;100279.41;1773579;79;21851;-64
2020/12/24 09:38:14;;;;;;;11.25;6.45;;;;;;;2.00;83.12;100266.25;1783204;79;21545;-64
2020/12/24 09:40:41;;;;;;;13.28;6.53;;;;;;;2.02;83.08;100258.85;1782095;79;21268;-63
2020/12/24 09:43:09;;;;;;;16.75;8.25;;;;;;;2.04;83.01;100258.70;1796341;79;21943;-62
2020/12/24 09:45:37;;;;;;;26.60;12.33;;;;;;;2.04;82.91;100256.86;1816814;78;21190;-63
2020/12/24 09:48:05;;;;;;;35.20;16.30;;;;;;;2.08;82.91;100253.36;1817031;78;21146;-64
2020/12/24 09:50:34;;;;;;;16.70;8.38;;;;;;;2.08;82.88;100254.71;1773956;79;21421;-63
2020/12/24 09:53:02;;;;;;;18.80;9.50;;;;;;;2.11;82.86;100251.72;1789682;79;21908;-62
2020/12/24 09:55:30;;;;;;;12.82;6.17;;;;;;;2.09;82.83;100249.16;1747214;82;21127;-63
2020/12/24 09:57:58;;;;;;;16.77;7.45;;;;;;;2.11;82.71;100233.66;1801139;79;21310;-62
2020/12/24 10:00:25;;;;;;;23.25;10.78;;;;;;;2.13;82.65;100238.91;1732666;82;21884;-62
2020/12/24 10:02:52;;;;;;;19.12;10.13;;;;;;;2.14;82.57;100229.30;1811990;79;21253;-62
2020/12/24 10:05:20;;;;;;;14.58;7.95;;;;;;;2.15;82.61;100228.30;1716697;82;21893;-66
2020/12/24 10:07:49;;;;;;;15.55;8.10;;;;;;;2.18;82.60;100225.30;1716230;82;21146;-65
2020/12/24 10:10:17;;;;;;;14.15;7.53;;;;;;;2.21;82.60;100229.06;1731237;82;21198;-66
2020/12/24 10:12:44;;;;;;;15.90;8.65;;;;;;;2.26;82.52;100222.36;1728915;83;21342;-67
2020/12/24 10:15:12;;;;;;;20.92;10.00;;;;;;;2.30;82.44;100214.30;1729001;83;21419;-62
2020/12/24 10:17:39;;;;;;;19.23;9.45;;;;;;;2.34;82.40;100200.84;1728809;83;21437;-63
2020/12/24 10:20:07;;;;;;;17.95;8.75;;;;;;;2.36;82.33;100200.19;1728714;83;21127;-66
2020/12/24 10:22:34;;;;;;;17.05;8.40;;;;;;;2.36;82.28;100192.92;1728336;83;21747;-65
2020/12/24 10:25:02;;;;;;;29.82;11.73;;;;;;;2.38;82.19;100196.83;1732129;81;21368;-62
2020/12/24 10:27:29;;;;;;;25.92;11.85;;;;;;;2.36;82.08;100186.16;1718419;82;21427;-67
2020/12/24 10:29:57;;;;;;;22.98;11.40;;;;;;;2.37;82.07;100185.16;1745986;82;21882;-66
2020/12/24 10:32:24;;;;;;;21.17;10.35;;;;;;;2.37;82.14;100177.55;1746053;82;21378;-69
2020/12/24 10:34:52;;;;;;;22.93;9.65;;;;;;;2.38;82.09;100184.16;1745961;82;21342;-64
2020/12/24 10:37:32;;;;;;;19.85;9.55;;;;;;;2.37;82.03;100182.46;1776965;80;21822;-67
2020/12/24 10:40:15;;;;;;;15.03;7.78;;;;;;;2.40;82.09;100178.60;1746025;82;21865;-67
2020/12/24 10:42:46;;;;;;;16.77;8.18;;;;;;;2.40;82.03;100174.55;1746017;82;21398;-67
2020/12/24 10:45:13;;;;;;;16.82;7.97;;;;;;;2.38;82.01;100172.50;1746176;82;21735;-68
2020/12/24 10:47:40;;;;;;;18.90;8.70;;;;;;;2.36;82.01;100173.15;1746068;82;21821;-69
2020/12/24 10:50:08;;;;;;;16.73;7.80;;;;;;;2.33;82.02;100159.44;1746154;82;21466;-63
2020/12/24 10:52:46;;;;;;;14.70;7.37;;;;;;;2.33;82.07;100159.94;1746030;82;21190;-66
2020/12/24 10:55:34;;;;;;;15.63;8.03;;;;;;;2.33;82.12;100158.58;1740033;82;21278;-67
2020/12/24 10:58:01;;;;;;;24.72;10.38;;;;;;;2.30;82.12;100151.63;1755463;81;21167;-66
2020/12/24 11:00:29;;;;;;;23.90;10.90;;;;;;;2.28;82.17;100150.07;1745905;82;21431;-67
2020/12/24 11:03:03;;;;;;;19.30;8.80;;;;;;;2.28;82.20;100144.16;1729400;82;21419;-69
2020/12/24 11:05:32;;;;;;;20.55;10.35;;;;;;;2.27;82.16;100140.27;1728027;82;21179;-67
2020/12/24 11:08:04;;;;;;;24.00;10.63;;;;;;;2.26;82.18;100143.97;1769170;80;21830;-67
2020/12/24 11:10:51;;;;;;;33.30;13.58;;;;;;;2.25;82.31;100137.71;1769268;80;21171;-67
2020/12/24 11:13:24;;;;;;;19.07;8.35;;;;;;;2.27;82.39;100129.45;1769391;81;21920;-63
2020/12/24 11:15:53;;;;;;;25.70;12.73;;;;;;;2.27;82.34;100134.86;1732683;82;21872;-66
2020/12/24 11:18:20;;;;;;;19.27;9.08;;;;;;;2.28;82.35;100131.16;1769845;81;21143;-68
2020/12/24 11:20:48;;;;;;;26.10;12.47;;;;;;;2.28;82.34;100128.45;1769396;81;21172;-70
2020/12/24 11:23:16;;;;;;;22.52;11.30;;;;;;;2.27;82.35;100122.19;1769293;81;21181;-69
2020/12/24 11:25:43;;;;;;;17.00;9.05;;;;;;;2.28;82.47;100115.78;1769066;80;21869;-70
2020/12/24 11:28:12;;;;;;;16.80;7.97;;;;;;;2.30;82.52;100121.04;1732366;82;21312;-68
2020/12/24 11:30:40;;;;;;;14.87;7.92;;;;;;;2.33;82.46;100115.33;1703012;84;21435;-69
2020/12/24 11:33:07;;;;;;;17.12;7.85;;;;;;;2.34;82.36;100111.63;1769516;79;21239;-67
2020/12/24 11:35:35;;;;;;;17.00;8.43;;;;;;;2.34;82.32;100108.92;1705979;82;21266;-69